Time;durP1;ratioP1;P1;durP2;ratioP2;P2;SDS_P1;SDS_P2;PMS_P1;PMS_P2;Temp;Humidity;BMP_temperature;BMP_pressure;BME280_temperature;BME280_humidity;BME280_pressure;Samples;Min_cycle;Max_cycle;Signal;HPM_P1;HPM_P2
2022/07/28 00:00:45;;;;;;;10.18;2.22;;;16.50;99.90;;;;;;5009559;28;20193;-67
2022/07/28 00:03:11;;;;;;;9.05;1.95;;;16.60;99.90;;;;;;5012018;28;20178;-67
2022/07/28 00:05:37;;;;;;;4.82;1.80;;;16.60;99.90;;;;;;5011948;28;20177;-67
2022/07/28 00:08:03;;;;;;;5.30;1.98;;;16.60;99.90;;;;;;5011263;28;20273;-66
2022/07/28 00:10:30;;;;;;;12.73;2.42;;;16.60;99.90;;;;;;5011252;28;20259;-66
2022/07/28 00:12:58;;;;;;;11.77;2.60;;;16.60;99.90;;;;;;5011936;28;20179;-67
2022/07/28 00:15:25;;;;;;;8.15;1.88;;;16.60;99.90;;;;;;5011723;28;20215;-67
2022/07/28 00:17:51;;;;;;;10.23;2.55;;;16.60;99.90;;;;;;5011687;28;20265;-66
2022/07/28 00:20:16;;;;;;;10.90;2.15;;;16.60;99.90;;;;;;5011168;28;20305;-67
2022/07/28 00:22:43;;;;;;;11.93;2.40;;;16.60;99.90;;;;;;5011573;28;20185;-67
2022/07/28 00:25:10;;;;;;;11.65;2.63;;;16.60;99.90;;;;;;5011577;28;20158;-67
2022/07/28 00:27:36;;;;;;;7.63;2.33;;;16.60;99.90;;;;;;5011345;28;20272;-57
2022/07/28 00:30:04;;;;;;;7.60;2.20;;;16.60;99.90;;;;;;5011422;28;20170;-57
2022/07/28 00:32:30;;;;;;;13.18;1.83;;;16.60;99.90;;;;;;5011004;28;20209;-55
2022/07/28 00:34:56;;;;;;;7.30;2.10;;;16.50;99.90;;;;;;5011158;28;20171;-57
2022/07/28 00:37:22;;;;;;;7.15;2.10;;;16.60;99.90;;;;;;5011178;28;20186;-57
2022/07/28 00:39:48;;;;;;;7.82;1.90;;;16.60;99.90;;;;;;5011227;28;20671;-57
2022/07/28 00:42:17;;;;;;;8.77;2.08;;;16.50;99.90;;;;;;5011705;28;20630;-57
2022/07/28 00:44:43;;;;;;;9.68;1.60;;;16.50;99.90;;;;;;5010815;28;20182;-56
2022/07/28 00:47:10;;;;;;;8.45;2.00;;;16.50;99.90;;;;;;5010903;28;20179;-57
2022/07/28 00:49:36;;;;;;;4.30;1.52;;;16.50;99.90;;;;;;5011056;28;20178;-57
2022/07/28 00:52:04;;;;;;;6.72;1.70;;;16.50;99.90;;;;;;4995769;28;20253;-57
2022/07/28 00:54:31;;;;;;;6.43;1.50;;;16.40;99.90;;;;;;5011058;28;20171;-57
2022/07/28 00:56:56;;;;;;;11.07;1.83;;;16.40;99.90;;;;;;5011100;28;20210;-57
2022/07/28 00:59:22;;;;;;;5.35;2.15;;;16.40;99.90;;;;;;5011070;28;20181;-57
2022/07/28 01:01:48;;;;;;;6.97;2.00;;;16.40;99.90;;;;;;5010691;28;20632;-58
2022/07/28 01:04:15;;;;;;;9.02;1.83;;;16.40;99.90;;;;;;5011344;28;20170;-58
2022/07/28 01:06:59;;;;;;;5.97;1.60;;;16.30;99.90;;;;;;5010856;28;20190;-57
2022/07/28 01:09:46;;;;;;;6.35;1.77;;;16.30;99.90;;;;;;5010651;28;20194;-56
2022/07/28 01:12:31;;;;;;;4.93;1.45;;;16.20;99.90;;;;;;5010937;28;20178;-57
2022/07/28 01:15:13;;;;;;;5.07;1.52;;;16.30;99.90;;;;;;5010623;28;20175;-57
2022/07/28 01:17:48;;;;;;;3.75;1.48;;;16.30;99.90;;;;;;5011013;28;20192;-57
2022/07/28 01:20:33;;;;;;;4.82;1.55;;;16.30;99.90;;;;;;5012457;28;20220;-57
2022/07/28 01:23:10;;;;;;;8.57;1.58;;;16.30;99.90;;;;;;5014773;28;20265;-59
2022/07/28 01:25:54;;;;;;;6.35;1.80;;;16.30;99.90;;;;;;5014763;28;20181;-57
2022/07/28 01:28:46;;;;;;;4.43;1.65;;;16.20;99.90;;;;;;5014876;28;20597;-57
2022/07/28 01:31:17;;;;;;;4.47;1.45;;;16.20;99.90;;;;;;5003221;28;20178;-57
2022/07/28 01:34:05;;;;;;;6.47;1.40;;;16.20;99.90;;;;;;5014428;28;20186;-56
2022/07/28 01:39:42;;;;;;;5.78;1.90;;;16.20;99.90;;;;;;4987818;28;20248;-56
2022/07/28 01:42:11;;;;;;;8.73;1.60;;;16.20;99.90;;;;;;5014386;28;20278;-57
2022/07/28 01:44:42;;;;;;;7.45;1.58;;;16.20;99.90;;;;;;5014357;28;20179;-57
2022/07/28 01:47:09;;;;;;;8.40;1.75;;;16.20;99.90;;;;;;5014261;28;20171;-57
2022/07/28 01:49:36;;;;;;;7.75;1.50;;;16.20;99.90;;;;;;5014342;28;20204;-56
2022/07/28 01:52:06;;;;;;;5.53;1.70;;;16.30;99.90;;;;;;5014059;28;20269;-57
2022/07/28 01:54:37;;;;;;;6.70;1.42;;;16.30;99.90;;;;;;5014290;28;20266;-57
2022/07/28 01:57:07;;;;;;;7.85;1.70;;;16.30;99.90;;;;;;4997754;28;20203;-56
2022/07/28 01:59:33;;;;;;;8.23;1.63;;;16.20;99.90;;;;;;5013848;28;20261;-57
2022/07/28 02:02:01;;;;;;;5.88;1.40;;;16.30;99.90;;;;;;5014408;28;20171;-57
2022/07/28 02:04:28;;;;;;;6.60;1.70;;;16.30;99.90;;;;;;5013754;28;20166;-56
2022/07/28 02:06:55;;;;;;;3.97;1.70;;;16.30;99.90;;;;;;5014389;28;20166;-57
2022/07/28 02:09:22;;;;;;;7.00;1.40;;;16.30;99.90;;;;;;5014248;28;20182;-56
2022/07/28 02:11:52;;;;;;;7.40;1.75;;;16.30;99.90;;;;;;5013998;28;20649;-60
2022/07/28 02:14:23;;;;;;;8.18;1.50;;;16.30;99.90;;;;;;5011628;28;20190;-57
2022/07/28 02:16:54;;;;;;;5.65;1.73;;;16.30;99.90;;;;;;5013597;28;20297;-56
2022/07/28 02:19:22;;;;;;;8.73;1.92;;;16.30;99.90;;;;;;5013507;28;20170;-56
2022/07/28 02:21:49;;;;;;;6.72;1.80;;;16.30;99.90;;;;;;5013980;28;20193;-56
2022/07/28 02:24:18;;;;;;;6.70;1.80;;;16.30;99.90;;;;;;5013745;28;20522;-57
2022/07/28 02:26:49;;;;;;;6.70;1.67;;;16.30;99.90;;;;;;5013873;28;20208;-58
2022/07/28 02:29:20;;;;;;;5.20;1.77;;;16.30;99.90;;;;;;5013335;28;20217;-56
2022/07/28 02:31:53;;;;;;;7.20;1.55;;;16.30;99.90;;;;;;5013449;28;20551;-56
2022/07/28 02:34:22;;;;;;;5.95;1.75;;;16.30;99.90;;;;;;5013495;28;20196;-57
2022/07/28 02:36:57;;;;;;;4.88;1.27;;;16.30;99.90;;;;;;5002527;28;20617;-57
2022/07/28 02:39:29;;;;;;;6.55;1.73;;;16.20;99.90;;;;;;4995285;28;20228;-57
2022/07/28 02:42:03;;;;;;;5.30;1.52;;;16.20;99.90;;;;;;5013507;28;20182;-57
2022/07/28 02:44:38;;;;;;;8.35;1.85;;;16.20;99.90;;;;;;5013122;28;20273;-57
2022/07/28 02:47:07;;;;;;;5.13;1.70;;;16.20;99.90;;;;;;4994245;28;20233;-57
2022/07/28 02:49:35;;;;;;;6.28;1.50;;;16.10;99.90;;;;;;5002520;28;20181;-57
2022/07/28 02:52:04;;;;;;;8.77;1.95;;;16.10;99.90;;;;;;5013429;28;20178;-57
2022/07/28 02:54:31;;;;;;;7.70;1.90;;;16.10;99.90;;;;;;5013120;28;20285;-57
2022/07/28 02:56:59;;;;;;;9.13;2.33;;;16.10;99.90;;;;;;5012969;28;20214;-57
2022/07/28 02:59:26;;;;;;;9.60;1.98;;;16.10;99.90;;;;;;5013353;28;20651;-57
2022/07/28 03:01:53;;;;;;;5.03;1.60;;;16.00;99.90;;;;;;5013526;28;20190;-57
2022/07/28 03:04:55;;;;;;;12.93;1.70;;;16.00;99.90;;;;;;5013072;28;20187;-57
2022/07/28 03:07:05;;;;;;;6.88;1.67;;;16.00;99.90;;;;;;5012558;28;20178;-57
2022/07/28 03:09:41;;;;;;;3.47;1.50;;;15.90;99.90;;;;;;5012944;28;20230;-57
2022/07/28 03:12:08;;;;;;;4.18;1.63;;;15.90;99.90;;;;;;5013209;28;20170;-57
2022/07/28 03:14:33;;;;;;;6.68;1.50;;;15.90;99.90;;;;;;5012908;28;20252;-56
2022/07/28 03:16:59;;;;;;;5.65;1.70;;;15.90;99.90;;;;;;5013096;28;20240;-57
2022/07/28 03:19:25;;;;;;;7.75;1.98;;;15.90;99.90;;;;;;4994994;28;20222;-56
2022/07/28 03:21:52;;;;;;;4.93;1.80;;;15.90;99.90;;;;;;5013023;28;20175;-57
2022/07/28 03:24:21;;;;;;;7.47;2.00;;;16.00;99.90;;;;;;5012620;28;20633;-57
2022/07/28 03:27:03;;;;;;;8.27;1.40;;;16.00;99.90;;;;;;5012933;28;20170;-57
2022/07/28 03:29:31;;;;;;;9.57;1.80;;;16.00;99.90;;;;;;5012333;28;20166;-57
2022/07/28 03:31:58;;;;;;;9.65;1.92;;;16.00;99.90;;;;;;5012295;28;20183;-57
2022/07/28 03:34:24;;;;;;;11.05;1.70;;;16.00;99.90;;;;;;4995030;28;20182;-57
2022/07/28 03:36:56;;;;;;;4.85;1.80;;;16.00;99.90;;;;;;5012721;28;20210;-56
2022/07/28 03:39:25;;;;;;;4.03;1.75;;;16.00;99.90;;;;;;5011878;28;20179;-57
2022/07/28 03:41:52;;;;;;;8.90;2.42;;;16.00;99.90;;;;;;5012442;28;20183;-57
2022/07/28 03:44:19;;;;;;;6.30;1.60;;;16.00;99.90;;;;;;5011784;28;20206;-56
2022/07/28 03:46:45;;;;;;;7.95;2.10;;;16.10;99.90;;;;;;5011763;28;20232;-65
2022/07/28 03:49:11;;;;;;;7.00;1.75;;;16.20;99.90;;;;;;5015458;28;20197;-57
2022/07/28 03:51:37;;;;;;;4.72;1.90;;;16.10;99.90;;;;;;5016711;28;20178;-66
2022/07/28 03:54:03;;;;;;;6.55;1.55;;;16.10;99.90;;;;;;5012516;28;20174;-57
2022/07/28 03:56:29;;;;;;;4.55;1.63;;;16.10;99.90;;;;;;5012161;28;20213;-58
2022/07/28 03:58:55;;;;;;;6.63;1.90;;;16.10;99.90;;;;;;5012429;28;20171;-57
2022/07/28 04:01:21;;;;;;;5.85;1.60;;;16.10;99.90;;;;;;5012166;28;20191;-57
2022/07/28 04:03:46;;;;;;;10.50;1.75;;;16.10;99.90;;;;;;5012301;28;20178;-58
2022/07/28 04:06:13;;;;;;;5.68;1.70;;;16.00;99.90;;;;;;5012185;28;20310;-57
2022/07/28 04:08:40;;;;;;;6.57;1.80;;;16.10;99.90;;;;;;5012131;28;20191;-57
2022/07/28 04:11:06;;;;;;;5.88;1.67;;;16.10;99.90;;;;;;5012177;28;20182;-57
2022/07/28 04:13:31;;;;;;;8.27;1.85;;;16.10;99.90;;;;;;5012508;28;20181;-57
2022/07/28 04:15:58;;;;;;;7.32;1.73;;;15.70;99.90;;;;;;5011939;28;20237;-57
2022/07/28 04:18:24;;;;;;;13.60;2.35;;;16.00;99.90;;;;;;5011989;28;20166;-57
2022/07/28 04:20:50;;;;;;;5.20;1.75;;;16.00;99.90;;;;;;5011659;28;20230;-57
2022/07/28 04:23:17;;;;;;;4.20;2.00;;;15.90;99.90;;;;;;5008499;28;20549;-57
2022/07/28 04:25:43;;;;;;;6.00;1.83;;;15.90;99.90;;;;;;4992213;28;20171;-57
2022/07/28 04:28:09;;;;;;;4.03;1.58;;;15.90;99.90;;;;;;4992274;28;20179;-57
2022/07/28 04:30:34;;;;;;;4.90;1.70;;;15.90;99.90;;;;;;4992086;28;20179;-57
2022/07/28 04:33:00;;;;;;;4.85;1.83;;;15.90;99.90;;;;;;4992156;28;20174;-57
2022/07/28 04:35:27;;;;;;;5.75;1.55;;;15.90;99.90;;;;;;4991966;28;20203;-57
2022/07/28 04:37:59;;;;;;;4.03;2.00;;;15.90;99.90;;;;;;4991979;28;20176;-57
2022/07/28 04:40:26;;;;;;;4.53;1.58;;;15.90;99.90;;;;;;4974472;28;20623;-56
2022/07/28 04:42:51;;;;;;;7.28;1.67;;;15.90;99.90;;;;;;4992033;28;20179;-57
2022/07/28 04:45:17;;;;;;;4.55;1.80;;;16.00;99.90;;;;;;4995423;28;20633;-57
2022/07/28 04:47:43;;;;;;;7.63;1.83;;;16.10;99.90;;;;;;5011500;28;20171;-57
2022/07/28 04:50:11;;;;;;;7.65;1.95;;;16.10;99.90;;;;;;5011535;28;20217;-57
2022/07/28 04:52:37;;;;;;;9.00;1.70;;;16.10;99.90;;;;;;5011511;28;20174;-57
2022/07/28 04:55:04;;;;;;;5.45;1.40;;;16.10;99.90;;;;;;5010456;28;20170;-57
2022/07/28 04:57:30;;;;;;;5.10;1.60;;;16.20;99.90;;;;;;5008926;28;20170;-58
2022/07/28 04:59:57;;;;;;;9.93;2.00;;;16.20;99.90;;;;;;5000179;28;20559;-57
2022/07/28 05:02:23;;;;;;;5.50;1.80;;;16.30;99.90;;;;;;5011334;28;20645;-57
2022/07/28 05:04:49;;;;;;;8.00;1.58;;;16.20;99.90;;;;;;4981297;28;20314;-57
2022/07/28 05:07:14;;;;;;;3.65;1.60;;;16.30;99.90;;;;;;4991668;28;20179;-57
2022/07/28 05:09:40;;;;;;;3.67;1.70;;;16.30;99.90;;;;;;4991645;28;20607;-57
2022/07/28 05:12:06;;;;;;;6.57;1.90;;;16.30;99.90;;;;;;4991631;28;20171;-57
2022/07/28 05:14:32;;;;;;;4.53;1.73;;;16.40;99.90;;;;;;4991450;28;20298;-57
2022/07/28 05:16:58;;;;;;;4.63;1.55;;;16.30;99.90;;;;;;4991573;28;20345;-57
2022/07/28 05:19:23;;;;;;;4.88;1.65;;;16.30;99.90;;;;;;4991514;28;20247;-57
2022/07/28 05:21:49;;;;;;;8.27;1.73;;;16.30;99.90;;;;;;4991578;28;20187;-58
2022/07/28 05:24:15;;;;;;;6.95;1.55;;;16.30;99.90;;;;;;4991562;28;20519;-57
2022/07/28 05:26:41;;;;;;;5.75;1.48;;;16.10;99.90;;;;;;4991559;28;20262;-57
2022/07/28 05:29:07;;;;;;;8.05;1.52;;;16.30;99.90;;;;;;4991390;28;20179;-57
2022/07/28 05:31:32;;;;;;;4.15;1.45;;;16.40;99.90;;;;;;4991367;28;20631;-57
2022/07/28 05:33:59;;;;;;;5.28;1.55;;;16.40;99.90;;;;;;4991439;28;20206;-57
2022/07/28 05:36:25;;;;;;;4.00;1.58;;;16.40;99.90;;;;;;4991298;28;20238;-57
2022/07/28 05:38:51;;;;;;;3.88;1.60;;;16.40;99.90;;;;;;4991516;28;20665;-58
2022/07/28 05:41:17;;;;;;;10.77;1.77;;;16.50;99.90;;;;;;4991258;28;20182;-57
2022/07/28 05:43:43;;;;;;;7.20;1.77;;;16.60;99.90;;;;;;4991246;28;20557;-57
2022/07/28 05:46:08;;;;;;;4.40;1.55;;;16.60;99.90;;;;;;5001862;28;20174;-58
2022/07/28 05:48:34;;;;;;;7.07;2.15;;;16.60;99.90;;;;;;5010867;28;20233;-57
2022/07/28 05:51:01;;;;;;;7.03;1.45;;;16.70;99.90;;;;;;5010880;28;20193;-57
2022/07/28 05:53:26;;;;;;;3.33;1.17;;;16.70;99.90;;;;;;5010880;28;20183;-57
2022/07/28 05:55:52;;;;;;;6.90;1.25;;;16.80;99.90;;;;;;5010728;28;20684;-56
2022/07/28 05:58:22;;;;;;;7.68;1.52;;;16.80;99.90;;;;;;5010879;28;20221;-57
2022/07/28 06:00:48;;;;;;;8.38;1.98;;;16.80;99.90;;;;;;5010692;28;20630;-57
2022/07/28 06:03:14;;;;;;;8.52;1.75;;;16.80;99.90;;;;;;5010713;28;20170;-58
2022/07/28 06:05:40;;;;;;;11.73;1.70;;;16.80;99.90;;;;;;5011299;28;20167;-56
2022/07/28 06:08:06;;;;;;;2.88;1.20;;;16.90;99.90;;;;;;5014374;28;20251;-57
2022/07/28 06:13:16;;;;;;;15.32;2.13;;;16.90;99.90;;;;;;5014417;28;20177;-57
2022/07/28 06:15:45;;;;;;;5.63;1.50;;;16.90;99.90;;;;;;5014138;28;20205;-58
2022/07/28 06:18:12;;;;;;;8.50;1.50;;;16.90;99.90;;;;;;5014100;28;20186;-57
2022/07/28 06:20:37;;;;;;;8.88;2.05;;;16.90;99.90;;;;;;5013734;28;20210;-57
2022/07/28 06:23:04;;;;;;;10.48;2.40;;;17.00;99.90;;;;;;5013745;28;20181;-57
2022/07/28 06:25:30;;;;;;;9.05;1.92;;;17.00;99.90;;;;;;4996280;28;20199;-57
2022/07/28 06:28:03;;;;;;;4.60;1.85;;;17.00;99.90;;;;;;5014061;28;20708;-57
2022/07/28 06:30:30;;;;;;;8.35;1.60;;;17.10;99.90;;;;;;5014037;28;20532;-57
2022/07/28 06:32:56;;;;;;;10.55;2.28;;;17.10;99.90;;;;;;5013844;28;20166;-56
2022/07/28 06:35:23;;;;;;;6.57;1.65;;;17.10;99.90;;;;;;5013747;28;20190;-57
2022/07/28 06:37:50;;;;;;;7.75;1.52;;;17.10;99.90;;;;;;5013035;28;20225;-57
2022/07/28 06:40:18;;;;;;;8.13;1.65;;;17.10;99.90;;;;;;4994971;28;20176;-57
2022/07/28 06:42:45;;;;;;;8.27;1.75;;;17.10;99.90;;;;;;4994105;28;20175;-75
2022/07/28 06:45:12;;;;;;;5.35;1.67;;;17.10;99.90;;;;;;4997069;28;20183;-74
2022/07/28 06:47:38;;;;;;;8.48;1.77;;;17.20;99.90;;;;;;5013846;28;20202;-73
2022/07/28 06:50:05;;;;;;;5.85;1.52;;;17.20;99.90;;;;;;5013012;28;20545;-72
2022/07/28 06:52:32;;;;;;;5.13;1.40;;;17.10;99.90;;;;;;5002316;28;20183;-72
2022/07/28 06:54:59;;;;;;;6.63;1.70;;;17.10;99.90;;;;;;5003726;28;20229;-72
2022/07/28 06:57:26;;;;;;;6.18;1.60;;;17.10;99.90;;;;;;5012673;28;20197;-71
2022/07/28 06:59:52;;;;;;;6.40;1.92;;;17.20;99.90;;;;;;5013013;28;20175;-71
2022/07/28 07:02:18;;;;;;;8.13;1.70;;;17.30;99.90;;;;;;5013052;28;20641;-73
2022/07/28 07:04:44;;;;;;;5.82;1.50;;;17.30;99.90;;;;;;5012623;28;20181;-74
2022/07/28 07:07:11;;;;;;;10.70;2.22;;;17.30;99.90;;;;;;5012670;28;20170;-75
2022/07/28 07:09:36;;;;;;;5.60;1.58;;;17.30;99.90;;;;;;5004819;28;20182;-73
2022/07/28 07:12:03;;;;;;;7.13;1.85;;;17.40;99.90;;;;;;5013321;28;20190;-72
2022/07/28 07:14:29;;;;;;;8.23;1.67;;;17.40;99.90;;;;;;5012754;28;20198;-72
2022/07/28 07:16:55;;;;;;;11.75;1.77;;;17.40;99.90;;;;;;5012382;28;20297;-72
2022/07/28 07:19:21;;;;;;;7.85;1.90;;;17.40;99.90;;;;;;5012019;28;20605;-72
2022/07/28 07:21:47;;;;;;;6.30;2.10;;;17.10;99.90;;;;;;5012664;28;20222;-69
2022/07/28 07:24:14;;;;;;;14.52;2.35;;;17.00;99.90;;;;;;5012830;28;20577;-73
2022/07/28 07:26:40;;;;;;;3.45;1.75;;;17.10;99.90;;;;;;5012775;28;20225;-73
2022/07/28 07:29:07;;;;;;;10.70;2.33;;;17.20;99.90;;;;;;5012996;28;20223;-71
2022/07/28 07:31:37;;;;;;;7.03;1.65;;;17.40;99.90;;;;;;5012897;28;20197;-68
2022/07/28 07:34:03;;;;;;;9.90;1.50;;;17.40;99.90;;;;;;5012819;28;20209;-67
2022/07/28 07:36:29;;;;;;;6.00;1.70;;;17.60;99.90;;;;;;5012823;28;20301;-68
2022/07/28 07:38:55;;;;;;;8.70;2.20;;;17.60;99.90;;;;;;5012727;28;20266;-68
2022/07/28 07:41:21;;;;;;;11.15;2.10;;;17.80;99.90;;;;;;5011612;28;20175;-70
2022/07/28 07:43:47;;;;;;;5.35;2.00;;;17.90;99.90;;;;;;5012186;28;20205;-71
2022/07/28 07:46:14;;;;;;;8.43;1.75;;;17.80;99.90;;;;;;5012436;28;20167;-70
2022/07/28 07:48:39;;;;;;;11.98;2.03;;;17.80;99.90;;;;;;5012387;28;20182;-70
2022/07/28 07:51:06;;;;;;;14.20;2.10;;;17.90;99.90;;;;;;5012188;28;20270;-70
2022/07/28 07:53:32;;;;;;;8.20;1.95;;;17.80;99.90;;;;;;5011983;28;20201;-67
2022/07/28 07:55:58;;;;;;;9.60;2.47;;;17.80;99.90;;;;;;5012281;28;20214;-69
2022/07/28 07:58:24;;;;;;;17.25;2.70;;;17.80;99.90;;;;;;5012013;28;20189;-70
2022/07/28 08:00:50;;;;;;;14.43;2.20;;;17.80;99.90;;;;;;5012287;28;20179;-68
2022/07/28 08:03:16;;;;;;;12.82;2.65;;;17.80;99.90;;;;;;5012236;28;20182;-68
2022/07/28 08:05:42;;;;;;;15.85;2.67;;;17.80;99.90;;;;;;5012168;28;20228;-68
2022/07/28 08:08:08;;;;;;;24.90;2.58;;;17.90;99.90;;;;;;5011974;28;20261;-71
2022/07/28 08:10:35;;;;;;;12.25;2.13;;;17.80;99.90;;;;;;5008008;28;20638;-70
2022/07/28 08:13:02;;;;;;;15.82;2.13;;;17.80;99.90;;;;;;5012064;28;20200;-69
2022/07/28 08:15:28;;;;;;;14.40;2.67;;;17.80;99.90;;;;;;5011973;28;20198;-68
2022/07/28 08:17:53;;;;;;;15.52;2.35;;;17.80;99.90;;;;;;5011880;28;20174;-70
2022/07/28 08:20:19;;;;;;;15.20;2.15;;;17.80;99.90;;;;;;5011493;28;20309;-69
2022/07/28 08:22:53;;;;;;;11.43;2.10;;;17.80;99.90;;;;;;5011932;28;20185;-69
2022/07/28 08:25:20;;;;;;;8.82;1.60;;;17.70;99.90;;;;;;5011803;28;20237;-69
2022/07/28 08:27:46;;;;;;;10.25;2.00;;;17.60;99.90;;;;;;5011086;28;20182;-70
2022/07/28 08:30:13;;;;;;;20.23;2.22;;;17.70;99.90;;;;;;5011506;28;20237;-69
2022/07/28 08:32:40;;;;;;;15.00;2.10;;;17.80;99.90;;;;;;5011944;28;20202;-70
2022/07/28 08:35:06;;;;;;;9.95;2.15;;;17.90;99.90;;;;;;5011826;28;20190;-70
2022/07/28 08:37:32;;;;;;;13.98;2.35;;;17.90;99.90;;;;;;5011879;28;20200;-69
2022/07/28 08:39:58;;;;;;;12.02;2.30;;;18.00;99.90;;;;;;5018576;28;20685;-69
2022/07/28 08:42:48;;;;;;;8.13;2.03;;;18.10;99.90;;;;;;5011532;28;20183;-69
2022/07/28 08:45:16;;;;;;;12.35;2.20;;;18.20;99.90;;;;;;5011531;28;20606;-59
2022/07/28 08:47:43;;;;;;;8.18;2.42;;;18.30;99.90;;;;;;5011398;28;20214;-58
2022/07/28 08:50:11;;;;;;;10.93;2.15;;;18.30;99.90;;;;;;5011512;28;20166;-70
2022/07/28 08:52:38;;;;;;;12.23;2.35;;;18.30;99.90;;;;;;5011056;28;20178;-72
2022/07/28 08:55:07;;;;;;;8.60;2.33;;;18.30;99.90;;;;;;5011429;28;20175;-69
2022/07/28 08:57:42;;;;;;;14.25;2.60;;;18.30;99.90;;;;;;5010919;28;20182;-71
2022/07/28 09:00:09;;;;;;;12.38;2.75;;;18.40;99.90;;;;;;5011157;28;20182;-72
2022/07/28 09:02:41;;;;;;;7.50;2.00;;;18.50;99.90;;;;;;5011382;28;20166;-71
2022/07/28 09:05:08;;;;;;;10.05;2.38;;;18.60;99.90;;;;;;5011520;28;20248;-71
2022/07/28 09:07:40;;;;;;;8.55;2.25;;;18.70;99.90;;;;;;4993751;28;20657;-69
2022/07/28 09:10:07;;;;;;;4.25;1.90;;;18.90;99.90;;;;;;5010197;28;20182;-71
2022/07/28 09:12:38;;;;;;;11.85;2.38;;;18.90;99.90;;;;;;5010958;28;20210;-72
2022/07/28 09:15:06;;;;;;;4.88;2.05;;;18.90;99.90;;;;;;5010562;28;20265;-71
2022/07/28 09:17:32;;;;;;;5.28;1.90;;;19.00;99.90;;;;;;5011277;28;20182;-70
2022/07/28 09:19:59;;;;;;;6.55;1.98;;;19.00;99.90;;;;;;5010377;28;20210;-70
2022/07/28 09:22:25;;;;;;;11.02;2.70;;;19.10;99.90;;;;;;5011156;28;20194;-70
2022/07/28 09:24:52;;;;;;;6.63;2.03;;;19.10;99.90;;;;;;5011228;28;20175;-70
2022/07/28 09:27:17;;;;;;;10.35;2.17;;;19.10;99.90;;;;;;5010542;28;20225;-70
2022/07/28 09:29:56;;;;;;;6.70;2.20;;;19.00;99.90;;;;;;5010892;28;20175;-69
2022/07/28 09:32:22;;;;;;;6.82;1.88;;;18.90;99.90;;;;;;5011120;28;20176;-70
2022/07/28 09:34:49;;;;;;;11.63;2.17;;;18.90;99.90;;;;;;5010518;28;20232;-70
2022/07/28 09:37:20;;;;;;;9.27;1.80;;;18.90;99.90;;;;;;5011040;28;20302;-70
2022/07/28 09:39:47;;;;;;;9.32;2.13;;;18.90;99.90;;;;;;5010463;28;20177;-69
2022/07/28 09:42:13;;;;;;;5.15;2.00;;;18.90;99.90;;;;;;5008973;28;20680;-69
2022/07/28 09:44:39;;;;;;;7.03;2.10;;;19.00;99.90;;;;;;5006668;28;20182;-70
2022/07/28 09:47:26;;;;;;;10.52;2.53;;;19.00;99.90;;;;;;5014433;28;20254;-70
2022/07/28 09:49:53;;;;;;;10.07;2.42;;;19.00;99.90;;;;;;4995231;28;20171;-68
2022/07/28 09:52:31;;;;;;;13.13;2.33;;;19.10;99.90;;;;;;4995103;28;20175;-68
2022/07/28 09:55:00;;;;;;;6.40;2.20;;;19.10;99.90;;;;;;4995185;28;20664;-70
2022/07/28 09:57:28;;;;;;;11.30;2.67;;;19.10;99.90;;;;;;4994972;28;20910;-70
2022/07/28 09:59:54;;;;;;;14.88;2.35;;;19.10;99.90;;;;;;4994894;28;20202;-70
2022/07/28 10:02:28;;;;;;;5.05;1.98;;;19.20;99.90;;;;;;4996196;28;20262;-71
2022/07/28 10:04:54;;;;;;;9.85;2.25;;;19.30;99.90;;;;;;5011399;28;20220;-70
2022/07/28 10:07:21;;;;;;;10.43;2.30;;;19.40;99.90;;;;;;5014007;28;20194;-71
2022/07/28 10:10:04;;;;;;;8.07;2.08;;;19.30;99.90;;;;;;5013704;28;20198;-71
2022/07/28 10:12:34;;;;;;;7.60;1.83;;;19.40;99.90;;;;;;5014185;28;20213;-70
2022/07/28 10:18:00;;;;;;;6.45;2.08;;;19.50;99.90;;;;;;5014525;28;20655;-70
2022/07/28 10:20:27;;;;;;;7.68;1.75;;;19.60;99.90;;;;;;5014151;28;20299;-71
2022/07/28 10:23:02;;;;;;;6.93;2.15;;;19.50;99.90;;;;;;5013750;28;20648;-71
2022/07/28 10:25:33;;;;;;;12.40;2.20;;;19.70;99.90;;;;;;5014226;28;20170;-72
2022/07/28 10:28:00;;;;;;;11.07;2.08;;;19.90;99.90;;;;;;5014267;28;20170;-71
2022/07/28 10:30:33;;;;;;;5.68;2.10;;;20.50;99.90;;;;;;5014258;28;20175;-71
2022/07/28 10:33:04;;;;;;;12.05;1.98;;;19.90;99.90;;;;;;5014059;28;20684;-70
2022/07/28 10:35:32;;;;;;;8.90;2.30;;;19.90;99.90;;;;;;4996419;28;20549;-70
2022/07/28 10:38:07;;;;;;;8.82;2.25;;;19.90;99.90;;;;;;5013936;28;20636;-71
2022/07/28 10:40:39;;;;;;;11.10;2.50;;;19.90;99.90;;;;;;5013746;28;20177;-72
2022/07/28 10:43:05;;;;;;;8.63;2.38;;;19.40;99.90;;;;;;5013853;28;20171;-71
2022/07/28 10:45:31;;;;;;;10.07;2.40;;;19.50;99.90;;;;;;5013691;28;20576;-71
2022/07/28 10:47:58;;;;;;;7.38;1.77;;;19.40;99.90;;;;;;5013723;28;20170;-71
2022/07/28 10:50:24;;;;;;;8.60;2.20;;;19.40;99.90;;;;;;5013759;28;20171;-72
2022/07/28 10:52:52;;;;;;;9.20;1.90;;;19.40;99.90;;;;;;5013585;28;20526;-71
2022/07/28 10:55:43;;;;;;;10.15;2.28;;;19.40;99.90;;;;;;5013554;28;20600;-70
2022/07/28 10:58:29;;;;;;;6.45;1.83;;;19.50;99.90;;;;;;5013657;28;20179;-71
2022/07/28 11:00:55;;;;;;;10.88;2.03;;;19.50;99.90;;;;;;5013738;28;20637;-71
2022/07/28 11:03:38;;;;;;;15.98;2.33;;;19.50;99.90;;;;;;5013479;28;20253;-71
2022/07/28 11:06:26;;;;;;;15.05;2.28;;;19.50;99.90;;;;;;5013420;28;20167;-72
2022/07/28 11:08:56;;;;;;;6.82;2.05;;;19.30;99.90;;;;;;5013562;28;20248;-71
2022/07/28 11:11:51;;;;;;;7.63;2.30;;;19.20;99.90;;;;;;5013139;28;20174;-71
2022/07/28 11:14:23;;;;;;;8.15;2.28;;;19.10;99.90;;;;;;5013235;28;20637;-70
2022/07/28 11:16:49;;;;;;;7.97;2.20;;;19.20;99.90;;;;;;5011988;28;20214;-70
2022/07/28 11:19:17;;;;;;;6.72;2.10;;;19.30;99.90;;;;;;5012505;28;20202;-69
2022/07/28 11:22:23;;;;;;;6.68;1.95;;;19.30;99.90;;;;;;5012519;28;20182;-69
2022/07/28 11:25:04;;;;;;;5.03;2.05;;;19.30;99.90;;;;;;5011072;28;20179;-65
2022/07/28 11:27:41;;;;;;;8.43;2.10;;;19.40;99.90;;;;;;5012537;28;20207;-70
2022/07/28 11:30:34;;;;;;;11.13;2.35;;;19.30;99.90;;;;;;5013114;28;20253;-71
2022/07/28 11:33:04;;;;;;;5.20;2.30;;;19.50;99.90;;;;;;5012984;28;20171;-69
2022/07/28 11:35:51;;;;;;;14.32;2.60;;;19.50;99.90;;;;;;5012671;28;20202;-71
2022/07/28 11:38:17;;;;;;;6.43;1.98;;;19.50;99.90;;;;;;5011886;28;20182;-71
2022/07/28 11:40:55;;;;;;;7.57;2.03;;;19.60;99.90;;;;;;5012601;28;20175;-71
2022/07/28 11:43:24;;;;;;;7.47;1.90;;;19.70;99.90;;;;;;4995613;28;20174;-71
2022/07/28 11:46:07;;;;;;;10.88;2.15;;;19.80;99.90;;;;;;5010918;28;20193;-70
2022/07/28 11:48:34;;;;;;;7.70;2.75;;;19.90;99.90;;;;;;5012580;28;20178;-70
2022/07/28 11:51:02;;;;;;;9.95;2.35;;;20.00;99.90;;;;;;5012571;28;20243;-70
2022/07/28 11:53:37;;;;;;;10.75;2.35;;;20.20;99.90;;;;;;5011936;28;20664;-70
2022/07/28 11:56:11;;;;;;;13.68;2.10;;;20.50;99.90;;;;;;5012391;28;20224;-67
2022/07/28 11:58:37;;;;;;;5.85;1.85;;;20.70;99.90;;;;;;4998986;28;20174;-71
2022/07/28 12:01:14;;;;;;;3.42;1.70;;;21.00;99.90;;;;;;5012016;28;20273;-71
2022/07/28 12:03:41;;;;;;;8.43;1.85;;;21.20;99.90;;;;;;5011664;28;20649;-69
2022/07/28 12:06:08;;;;;;;9.27;2.25;;;21.50;99.90;;;;;;5011968;28;20252;-69
2022/07/28 12:09:02;;;;;;;7.22;2.08;;;21.70;99.90;;;;;;5012001;28;20205;-71
2022/07/28 12:11:35;;;;;;;14.55;2.25;;;22.40;99.90;;;;;;5011419;28;20170;-71
2022/07/28 12:14:06;;;;;;;7.40;2.03;;;22.40;99.90;;;;;;4992698;28;20179;-71
2022/07/28 12:16:37;;;;;;;10.13;1.80;;;22.90;99.90;;;;;;5008145;28;20265;-70
2022/07/28 12:19:05;;;;;;;7.60;2.00;;;23.10;99.90;;;;;;5012022;28;20166;-71
2022/07/28 12:21:38;;;;;;;5.43;1.75;;;24.00;99.90;;;;;;5011464;28;20233;-69
2022/07/28 12:24:05;;;;;;;6.72;1.70;;;25.20;99.90;;;;;;5011922;28;20201;-70
2022/07/28 12:26:35;;;;;;;9.35;2.50;;;24.80;99.90;;;;;;5011734;28;20178;-70
2022/07/28 12:29:02;;;;;;;6.22;1.98;;;24.80;99.90;;;;;;5011984;28;21038;-70
2022/07/28 12:31:36;;;;;;;11.02;1.90;;;24.40;99.90;;;;;;5011906;28;20173;-70
2022/07/28 12:34:05;;;;;;;8.20;2.05;;;25.00;99.90;;;;;;5011829;28;20624;-70
2022/07/28 12:36:35;;;;;;;11.15;2.00;;;23.40;99.90;;;;;;5011266;28;20206;-71
2022/07/28 12:39:02;;;;;;;6.63;1.90;;;23.20;99.90;;;;;;5011759;28;20217;-71
2022/07/28 12:41:35;;;;;;;7.38;2.00;;;22.80;99.90;;;;;;5011908;28;20182;-70
2022/07/28 12:44:03;;;;;;;6.15;2.13;;;22.30;99.90;;;;;;5011536;28;20178;-70
2022/07/28 12:46:30;;;;;;;12.68;2.30;;;21.90;99.90;;;;;;4993807;28;20182;-70
2022/07/28 12:48:57;;;;;;;8.73;3.25;;;21.60;99.90;;;;;;5011304;28;20182;-70
2022/07/28 12:51:32;;;;;;;7.85;3.10;;;21.20;99.90;;;;;;5011536;28;20166;-70
2022/07/28 12:53:59;;;;;;;6.95;2.72;;;21.10;99.90;;;;;;5011619;28;20192;-70
2022/07/28 12:56:25;;;;;;;11.35;2.35;;;20.90;99.90;;;;;;5011458;28;20250;-70
2022/07/28 12:59:07;;;;;;;15.18;3.03;;;20.80;99.90;;;;;;5011471;28;20162;-69
2022/07/28 13:01:53;;;;;;;10.20;2.70;;;20.60;99.90;;;;;;5010652;28;20220;-70